Latest Weather Observations for North West 10 Beacon

IDQ60901

Issued at 11:41 am EST Tuesday 6 December 2022 (issued every 10 minutes, with the page automatically refreshed every 10 minutes)

About weather observations | Map of Brisbane area stations | Latest observations for Brisbane area | Other Formats
Station Details ID: 200896 Name: NORTH WEST 10 BEACON Lat: -27.00 Lon: 153.24 Height: 7.0 m
Data from the previous 72 hours. | See also: Recent months for locations in Queensland
Date/Time
EST
Temp
°C
App
Temp
°C
Dew
Point
°C
Rel
Hum
%
Delta-T
°C
Wind Press
QNH
hPa
Press
MSL
hPa
Rain since
9am
mm
Dir  Spd
km/h
Gust
km/h
Spd
kts
Gust
kts
06/11:30am - - - - - NNW 19 22 10 12 - - -
06/11:00am - - - - - NNW 15 17 8 9 - - -
06/10:30am - - - - - NNW 15 17 8 9 - - -
06/10:00am - - - - - NW 17 19 9 10 - - -
06/09:30am - - - - - NW 17 19 9 10 - - -
06/09:00am - - - - - NW 15 17 8 9 - - -
06/08:30am - - - - - NW 11 13 6 7 - - -
06/08:00am - - - - - WNW 11 15 6 8 - - -
06/07:30am - - - - - WNW 11 13 6 7 - - -
06/07:00am - - - - - W 15 17 8 9 - - -
06/06:30am - - - - - W 15 17 8 9 - - -
06/06:00am - - - - - WNW 17 17 9 9 - - -
06/05:30am - - - - - WNW 19 20 10 11 - - -
06/05:00am - - - - - W 17 20 9 11 - - -
06/04:30am - - - - - WNW 20 22 11 12 - - -
06/04:00am - - - - - WNW 24 26 13 14 - - -
06/03:30am - - - - - WNW 22 26 12 14 - - -
06/03:00am - - - - - WNW 26 30 14 16 - - -
06/02:30am - - - - - NW 26 32 14 17 - - -
06/02:00am - - - - - NW 20 24 11 13 - - -
06/01:30am - - - - - WNW 19 22 10 12 - - -
06/01:00am - - - - - WNW 17 20 9 11 - - -
06/12:30am - - - - - WNW 17 20 9 11 - - -
06/12:00am - - - - - NW 13 17 7 9 - - -
 
Date/Time
EST
Temp
°C
App
Temp
°C
Dew
Point
°C
Rel
Hum
%
Delta-T
°C
Wind Press
QNH
hPa
Press
MSL
hPa
Rain since
9am
mm
Dir  Spd
km/h
Gust
km/h
Spd
kts
Gust
kts
05/11:30pm - - - - - NW 13 15 7 8 - - -
05/11:00pm - - - - - NW 11 13 6 7 - - -
05/10:30pm - - - - - NNW 9 13 5 7 - - -
05/10:00pm - - - - - N 13 15 7 8 - - -
05/09:30pm - - - - - N 11 13 6 7 - - -
05/09:00pm - - - - - N 11 13 6 7 - - -
05/08:30pm - - - - - N 13 17 7 9 - - -
05/08:00pm - - - - - NNE 13 17 7 9 - - -
05/07:30pm - - - - - NNE 13 15 7 8 - - -
05/07:00pm - - - - - NNE 13 15 7 8 - - -
05/06:30pm - - - - - NNE 13 17 7 9 - - -
05/06:00pm - - - - - NNE 13 15 7 8 - - -
05/05:30pm - - - - - NNE 15 17 8 9 - - -
05/05:00pm - - - - - NNE 15 17 8 9 - - -
05/04:30pm - - - - - NNE 13 15 7 8 - - -
05/04:00pm - - - - - NNE 13 15 7 8 - - -
05/03:30pm - - - - - NNE 9 11 5 6 - - -
05/03:00pm - - - - - NNE 4 6 2 3 - - -
05/02:30pm - - - - - N 6 7 3 4 - - -
05/02:00pm - - - - - ENE 7 7 4 4 - - -
05/01:30pm - - - - - ESE 4 6 2 3 - - -
05/01:00pm - - - - - ESE 9 11 5 6 - - -
05/12:30pm - - - - - ESE 13 15 7 8 - - -
05/12:00pm - - - - - SE 19 22 10 12 - - -
05/11:30am - - - - - SE 19 20 10 11 - - -
05/11:00am - - - - - SE 20 24 11 13 - - -
05/10:30am - - - - - SE 22 24 12 13 - - -
05/10:00am - - - - - SE 22 26 12 14 - - -
05/09:30am - - - - - SE 26 28 14 15 - - -
05/09:00am - - - - - SE 24 30 13 16 - - -
05/08:30am - - - - - SE 24 30 13 16 - - -
05/08:00am - - - - - SE 24 30 13 16 - - -
05/07:30am - - - - - SE 26 32 14 17 - - -
05/07:00am - - - - - SSE 24 30 13 16 - - -
05/06:30am - - - - - SE 26 32 14 17 - - -
05/06:00am - - - - - SSE 24 28 13 15 - - -
05/05:30am - - - - - SSE 22 26 12 14 - - -
05/05:00am - - - - - SSE 30 39 16 21 - - -
05/04:30am - - - - - SE 30 35 16 19 - - -
05/04:00am - - - - - SE 30 33 16 18 - - -
05/03:30am - - - - - SE 32 37 17 20 - - -
05/03:00am - - - - - SE 32 37 17 20 - - -
05/02:30am - - - - - SE 30 35 16 19 - - -
05/02:00am - - - - - SE 32 37 17 20 - - -
05/01:30am - - - - - SE 33 39 18 21 - - -
05/01:00am - - - - - SE 32 35 17 19 - - -
05/12:30am - - - - - SE 32 35 17 19 - - -
05/12:00am - - - - - ESE 30 35 16 19 - - -
 
Date/Time
EST
Temp
°C
App
Temp
°C
Dew
Point
°C
Rel
Hum
%
Delta-T
°C
Wind Press
QNH
hPa
Press
MSL
hPa
Rain since
9am
mm
Dir  Spd
km/h
Gust
km/h
Spd
kts
Gust
kts
04/11:30pm - - - - - ESE 32 37 17 20 - - -
04/11:00pm - - - - - ESE 32 35 17 19 - - -
04/10:30pm - - - - - ESE 28 33 15 18 - - -
04/10:00pm - - - - - ESE 30 32 16 17 - - -
04/09:30pm - - - - - ESE 30 37 16 20 - - -
04/09:00pm - - - - - ESE 32 37 17 20 - - -
04/08:30pm - - - - - ESE 32 37 17 20 - - -
04/08:00pm - - - - - ESE 30 37 16 20 - - -
04/07:30pm - - - - - ESE 30 35 16 19 - - -
04/07:00pm - - - - - ESE 32 37 17 20 - - -
04/06:30pm - - - - - ESE 32 37 17 20 - - -
04/06:00pm - - - - - ESE 32 39 17 21 - - -
04/05:30pm - - - - - ESE 33 37 18 20 - - -
04/05:00pm - - - - - ESE 33 43 18 23 - - -
04/04:30pm - - - - - ESE 37 43 20 23 - - -
04/04:00pm - - - - - ESE 30 37 16 20 - - -
04/03:30pm - - - - - ESE 35 44 19 24 - - -
04/03:00pm - - - - - ESE 33 39 18 21 - - -
04/02:30pm - - - - - ESE 30 37 16 20 - - -
04/02:00pm - - - - - ESE 32 39 17 21 - - -
04/01:30pm - - - - - ESE 33 39 18 21 - - -
04/01:00pm - - - - - ESE 33 37 18 20 - - -
04/12:30pm - - - - - E 32 39 17 21 - - -
04/12:00pm - - - - - SE 32 35 17 19 - - -
04/11:30am - - - - - SE 32 37 17 20 - - -
04/11:00am - - - - - SE 32 37 17 20 - - -
04/10:30am - - - - - SE 35 43 19 23 - - -
04/10:00am - - - - - SE 33 39 18 21 - - -
04/09:30am - - - - - SE 33 39 18 21 - - -
04/09:00am - - - - - SE 35 41 19 22 - - -
04/08:30am - - - - - SE 33 39 18 21 - - -
04/08:00am - - - - - SE 32 39 17 21 - - -
04/07:30am - - - - - SE 35 43 19 23 - - -
04/07:00am - - - - - SE 35 43 19 23 - - -
04/06:30am - - - - - SE 32 43 17 23 - - -
04/06:00am - - - - - SE 32 41 17 22 - - -
04/05:30am - - - - - SE 33 39 18 21 - - -
04/05:00am - - - - - ESE 35 44 19 24 - - -
04/04:30am - - - - - SE 37 48 20 26 - - -
04/04:00am - - - - - SE 32 37 17 20 - - -
04/03:30am - - - - - SE 30 37 16 20 - - -
04/03:00am - - - - - SE 32 37 17 20 - - -
04/02:30am - - - - - SE 32 39 17 21 - - -
04/02:00am - - - - - SE 35 43 19 23 - - -
04/01:30am - - - - - SE 35 43 19 23 - - -
04/01:00am - - - - - SE 35 43 19 23 - - -
04/12:30am - - - - - SE 35 43 19 23 - - -
04/12:00am - - - - - SE 37 43 20 23 - - -
 
Date/Time
EST
Temp
°C
App
Temp
°C
Dew
Point
°C
Rel
Hum
%
Delta-T
°C
Wind Press
QNH
hPa
Press
MSL
hPa
Rain since
9am
mm
Dir  Spd
km/h
Gust
km/h
Spd
kts
Gust
kts
03/11:30pm - - - - - SE 39 44 21 24 - - -
03/11:00pm - - - - - SE 39 46 21 25 - - -
03/10:30pm - - - - - SE 35 43 19 23 - - -
03/10:00pm - - - - - SE 39 44 21 24 - - -
03/09:30pm - - - - - SE 41 50 22 27 - - -
03/09:00pm - - - - - SE 35 41 19 22 - - -
03/08:30pm - - - - - ESE 37 44 20 24 - - -
03/08:00pm - - - - - ESE 35 41 19 22 - - -
03/07:37pm - - - - - E 35 56 19 30 - - -
03/07:30pm - - - - - ESE 32 39 17 21 - - -
03/07:00pm - - - - - ESE 32 39 17 21 - - -
03/06:30pm - - - - - ESE 37 44 20 24 - - -
03/06:00pm - - - - - E 35 44 19 24 - - -
03/05:30pm - - - - - ESE 33 41 18 22 - - -
03/05:00pm - - - - - ESE 32 39 17 21 - - -
03/04:30pm - - - - - E 33 41 18 22 - - -
03/04:00pm - - - - - E 39 46 21 25 - - -
03/03:30pm - - - - - ESE 37 44 20 24 - - -
03/03:00pm - - - - - ESE 39 46 21 25 - - -
03/02:30pm - - - - - E 37 48 20 26 - - -
03/02:00pm - - - - - ESE 39 48 21 26 - - -
03/01:30pm - - - - - ESE 35 43 19 23 - - -
03/01:07pm - - - - - ESE 35 54 19 29 - - -
03/01:00pm - - - - - ESE 37 50 20 27 - - -
03/12:30pm - - - - - E 37 46 20 25 - - -
03/12:00pm - - - - - ESE 39 48 21 26 - - -

Latest Capital City Observations: Canberra | Sydney | Melbourne | Brisbane | Adelaide | Perth | Hobart | Darwin

Other formats

Comma delimited format used in spreadsheet applications
http://www.bom.gov.au/fwo/IDQ60901/IDQ60901.99496.axf

JavaScript Object Notation format (JSON) in row-major order
http://www.bom.gov.au/fwo/IDQ60901/IDQ60901.99496.json

Data quality

Most of these data are generated automatically and are frequently updated. Quality checks on data are not normally performed. It is possible for incorrect values to appear. Refer to information at About Latest Weather Observations and please check the disclaimer before using these data.